Terminal Aerodrome Forecast
Issued by NWS

Current Version | Previous Version | Graphics & Text | Print | Product List | Glossary On
Versions: 1 2 3 4 5 6 7 8 9 10 11 12 13 14 15 16 17 18 19
000
FTUS41 KPBZ 151127
TAFMGW
TAF
KMGW 151127Z 1512/1612 01005KT P6SM OVC250
     FM151500 05010G18KT P6SM OVC250
     FM160600 10007KT P6SM SCT250=

USA.gov is the U.S. government's official web portal to all federal, state and local government web resources and services.